Time;durP1;ratioP1;P1;durP2;ratioP2;P2;SDS_P1;SDS_P2;PMS_P1;PMS_P2;Temp;Humidity;BMP_temperature;BMP_pressure;BME280_temperature;BME280_humidity;BME280_pressure;Samples;Min_cycle;Max_cycle;Signal;HPM_P1;HPM_P2
2023/09/29 00:01:35;;;;;;;;;;;;;;;16.04;100.00;101639.99;106085;1257;72689;-84
2023/09/29 00:04:04;;;;;;;;;;;;;;;15.99;100.00;101639.25;106007;1257;61694;-86
2023/09/29 00:06:34;;;;;;;;;;;;;;;16.03;100.00;101640.38;106039;1262;61104;-84
2023/09/29 00:09:02;;;;;;;;;;;;;;;16.02;100.00;101640.22;106222;1262;74648;-86
2023/09/29 00:11:32;;;;;;;;;;;;;;;16.02;100.00;101641.16;106283;1262;67592;-84
2023/09/29 00:13:59;;;;;;;;;;;;;;;16.03;100.00;101637.35;105955;1259;72651;-86
2023/09/29 00:16:26;;;;;;;;;;;;;;;16.00;100.00;101636.38;105998;1264;61728;-85
2023/09/29 00:18:53;;;;;;;;;;;;;;;15.95;100.00;101636.02;106046;1260;61373;-86
2023/09/29 00:21:20;;;;;;;;;;;;;;;15.94;100.00;101635.48;106007;1261;74389;-86
2023/09/29 00:23:48;;;;;;;;;;;;;;;15.95;100.00;101634.65;106047;1262;68667;-84
2023/09/29 00:26:14;;;;;;;;;;;;;;;15.91;100.00;101635.55;106468;1259;72336;-84
2023/09/29 00:28:42;;;;;;;;;;;;;;;15.90;100.00;101632.64;106158;1259;61376;-85
2023/09/29 00:31:09;;;;;;;;;;;;;;;15.93;100.00;101636.04;106150;1262;61154;-85
2023/09/29 00:33:36;;;;;;;;;;;;;;;15.94;100.00;101633.71;105977;1262;74438;-85
2023/09/29 00:36:04;;;;;;;;;;;;;;;15.92;100.00;101631.58;106093;1259;67756;-83
2023/09/29 00:38:33;;;;;;;;;;;;;;;15.94;100.00;101627.94;106107;1257;71399;-84
2023/09/29 00:41:00;;;;;;;;;;;;;;;15.92;100.00;101628.66;106036;1257;61764;-85
2023/09/29 00:43:27;;;;;;;;;;;;;;;15.93;100.00;101628.88;106037;1257;61247;-83
2023/09/29 00:45:54;;;;;;;;;;;;;;;15.89;100.00;101627.36;106152;1258;74678;-86
2023/09/29 00:48:22;;;;;;;;;;;;;;;15.86;100.00;101627.77;105973;1258;68906;-85
2023/09/29 00:50:49;;;;;;;;;;;;;;;15.87;100.00;101624.23;106106;1258;72512;-86
2023/09/29 00:53:17;;;;;;;;;;;;;;;15.90;100.00;101625.48;105931;1260;61850;-83
2023/09/29 00:55:45;;;;;;;;;;;;;;;15.90;100.00;101625.42;106144;1258;61272;-84
2023/09/29 00:58:14;;;;;;;;;;;;;;;15.87;100.00;101627.05;106339;1257;73201;-85
2023/09/29 01:00:41;;;;;;;;;;;;;;;15.85;100.00;101626.95;106100;1259;69097;-83
2023/09/29 01:03:09;;;;;;;;;;;;;;;15.77;100.00;101626.50;106623;1257;71992;-84
2023/09/29 01:05:38;;;;;;;;;;;;;;;15.72;100.00;101631.61;106217;1260;61904;-83
2023/09/29 01:08:08;;;;;;;;;;;;;;;15.66;100.00;101628.85;106105;1259;61192;-84
2023/09/29 01:10:36;;;;;;;;;;;;;;;15.67;100.00;101630.12;106249;1262;75084;-86
2023/09/29 01:13:03;;;;;;;;;;;;;;;15.62;100.00;101629.66;106044;1257;69249;-84
2023/09/29 01:15:32;;;;;;;;;;;;;;;15.59;100.00;101633.52;105920;1262;72721;-85
2023/09/29 01:18:00;;;;;;;;;;;;;;;15.54;100.00;101635.77;105970;1257;61257;-85
2023/09/29 01:20:29;;;;;;;;;;;;;;;15.57;100.00;101634.96;106035;1262;61147;-84
2023/09/29 01:22:57;;;;;;;;;;;;;;;15.57;100.00;101636.13;106117;1257;73476;-85
2023/09/29 01:25:24;;;;;;;;;;;;;;;15.54;100.00;101636.41;106040;1262;67390;-86
2023/09/29 01:27:52;;;;;;;;;;;;;;;15.54;100.00;101639.72;107117;1262;71485;-85
2023/09/29 01:30:19;;;;;;;;;;;;;;;15.51;100.00;101634.61;106359;1258;61937;-83
2023/09/29 01:32:47;;;;;;;;;;;;;;;15.50;100.00;101638.86;106118;1259;61192;-83
2023/09/29 01:35:17;;;;;;;;;;;;;;;15.48;100.00;101636.39;106032;1259;73223;-86
2023/09/29 01:37:44;;;;;;;;;;;;;;;15.37;100.00;101637.06;106113;1260;67669;-87
2023/09/29 01:40:11;;;;;;;;;;;;;;;15.40;100.00;101639.02;106121;1257;72805;-83
2023/09/29 01:42:40;;;;;;;;;;;;;;;15.39;100.00;101638.92;106137;1258;61917;-85
2023/09/29 01:45:11;;;;;;;;;;;;;;;15.37;100.00;101642.96;106236;1258;61537;-85
2023/09/29 01:47:38;;;;;;;;;;;;;;;15.35;100.00;101638.39;106137;1259;74714;-83
2023/09/29 01:50:06;;;;;;;;;;;;;;;15.32;100.00;101641.00;106155;1259;67449;-85
2023/09/29 01:52:33;;;;;;;;;;;;;;;15.24;100.00;101645.27;106186;1262;72616;-83
2023/09/29 01:55:04;;;;;;;;;;;;;;;15.19;100.00;101653.94;107120;1257;61252;-86
2023/09/29 01:57:31;;;;;;;;;;;;;;;15.14;100.00;101650.48;107351;1257;61338;-85
2023/09/29 01:59:58;;;;;;;;;;;;;;;15.13;100.00;101650.75;106131;1257;74743;-83
2023/09/29 02:02:24;;;;;;;;;;;;;;;15.14;100.00;101651.20;105962;1259;68490;-84
2023/09/29 02:04:55;;;;;;;;;;;;;;;15.15;100.00;101651.03;106282;1258;73738;-86
2023/09/29 02:07:24;;;;;;;;;;;;;;;15.14;100.00;101652.46;106186;1258;61858;-83
2023/09/29 02:09:51;;;;;;;;;;;;;;;15.13;100.00;101647.17;106151;1260;61408;-85
2023/09/29 02:12:18;;;;;;;;;;;;;;;15.09;100.00;101647.41;105998;1259;74445;-83
2023/09/29 02:14:45;;;;;;;;;;;;;;;15.11;100.00;101644.98;106004;1259;67385;-83
2023/09/29 02:17:13;;;;;;;;;;;;;;;15.14;100.00;101643.16;106246;1257;70439;-85
2023/09/29 02:19:39;;;;;;;;;;;;;;;15.17;100.00;101645.52;106081;1257;61341;-86
2023/09/29 02:22:07;;;;;;;;;;;;;;;15.17;100.00;101643.81;106288;1258;61376;-85
2023/09/29 02:24:34;;;;;;;;;;;;;;;15.15;100.00;101641.61;105972;1257;73411;-82
2023/09/29 02:27:01;;;;;;;;;;;;;;;15.15;100.00;101642.98;106186;1257;67441;-83
2023/09/29 02:29:28;;;;;;;;;;;;;;;15.15;100.00;101641.45;106192;1257;72536;-85
2023/09/29 02:31:58;;;;;;;;;;;;;;;15.17;100.00;101640.29;106165;1262;61192;-85
2023/09/29 02:34:28;;;;;;;;;;;;;;;15.11;100.00;101642.45;106281;1262;61165;-85
2023/09/29 02:36:54;;;;;;;;;;;;;;;15.03;100.00;101641.31;106749;1262;73270;-83
2023/09/29 02:39:21;;;;;;;;;;;;;;;15.02;100.00;101646.23;106019;1262;67455;-83
2023/09/29 02:41:48;;;;;;;;;;;;;;;14.97;100.00;101642.82;106078;1257;72439;-86
2023/09/29 02:44:15;;;;;;;;;;;;;;;14.91;100.00;101641.86;106087;1259;61314;-85
2023/09/29 02:46:42;;;;;;;;;;;;;;;14.90;100.00;101642.58;106043;1257;61109;-84
2023/09/29 02:49:09;;;;;;;;;;;;;;;14.89;100.00;101640.70;106151;1261;74589;-83
2023/09/29 02:51:36;;;;;;;;;;;;;;;14.87;100.00;101640.17;106019;1257;67228;-83
2023/09/29 02:54:10;;;;;;;;;;;;;;;14.80;100.00;101640.58;106154;1257;73302;-84
2023/09/29 02:56:37;;;;;;;;;;;;;;;14.78;100.00;101638.14;106095;1262;61334;-84
2023/09/29 02:59:06;;;;;;;;;;;;;;;14.78;100.00;101637.98;106136;1259;61356;-84
2023/09/29 03:01:34;;;;;;;;;;;;;;;14.78;100.00;101639.41;106087;1262;73623;-83
2023/09/29 03:04:01;;;;;;;;;;;;;;;14.75;100.00;101637.55;105979;1258;67332;-86
2023/09/29 03:06:29;;;;;;;;;;;;;;;14.66;100.00;101638.08;106120;1257;72684;-83
2023/09/29 03:08:58;;;;;;;;;;;;;;;14.68;100.00;101640.14;106138;1260;61157;-83
2023/09/29 03:11:25;;;;;;;;;;;;;;;14.67;100.00;101636.90;106090;1258;59890;-86
2023/09/29 03:13:55;;;;;;;;;;;;;;;14.68;100.00;101639.64;107662;1257;74683;-84
2023/09/29 03:16:24;;;;;;;;;;;;;;;14.68;100.00;101641.30;106503;1258;68488;-83
2023/09/29 03:18:51;;;;;;;;;;;;;;;14.59;100.00;101637.25;106111;1259;72619;-86
2023/09/29 03:21:19;;;;;;;;;;;;;;;14.54;100.00;101641.65;106094;1258;61352;-86
2023/09/29 03:23:46;;;;;;;;;;;;;;;14.54;100.00;101643.64;106108;1257;61257;-84
2023/09/29 03:26:22;;;;;;;;;;;;;;;14.49;100.00;101642.40;105999;1260;74642;-85
2023/09/29 03:28:54;;;;;;;;;;;;;;;14.48;100.00;101645.38;106004;1257;68707;-83
2023/09/29 03:31:22;;;;;;;;;;;;;;;14.47;100.00;101644.17;106167;1261;72608;-86
2023/09/29 03:33:49;;;;;;;;;;;;;;;14.47;100.00;101643.61;105999;1257;61129;-84
2023/09/29 03:36:16;;;;;;;;;;;;;;;14.41;100.00;101644.78;106144;1257;61233;-86
2023/09/29 03:38:43;;;;;;;;;;;;;;;14.45;100.00;101637.89;106066;1257;73204;-85
2023/09/29 03:41:10;;;;;;;;;;;;;;;14.50;100.00;101637.45;106158;1257;67727;-84
2023/09/29 03:43:38;;;;;;;;;;;;;;;14.50;100.00;101639.98;106089;1259;72388;-85
2023/09/29 03:46:06;;;;;;;;;;;;;;;14.49;100.00;101638.11;106192;1257;61320;-86
2023/09/29 03:48:33;;;;;;;;;;;;;;;14.48;100.00;101643.29;106439;1257;61253;-85
2023/09/29 03:51:02;;;;;;;;;;;;;;;14.49;100.00;101644.83;106289;1258;74453;-85
2023/09/29 03:53:29;;;;;;;;;;;;;;;14.45;100.00;101642.69;106134;1257;68698;-85
2023/09/29 03:55:56;;;;;;;;;;;;;;;14.42;100.00;101641.42;106185;1257;72516;-83
2023/09/29 03:58:24;;;;;;;;;;;;;;;14.46;100.00;101644.66;106190;1257;61364;-84
2023/09/29 04:00:51;;;;;;;;;;;;;;;14.47;100.00;101643.02;106213;1260;61154;-85
2023/09/29 04:03:18;;;;;;;;;;;;;;;14.47;100.00;101642.63;105952;1262;74846;-86
2023/09/29 04:05:45;;;;;;;;;;;;;;;14.47;100.00;101643.62;106047;1259;68547;-83
2023/09/29 04:08:12;;;;;;;;;;;;;;;14.50;100.00;101642.89;106004;1259;72998;-84
2023/09/29 04:10:39;;;;;;;;;;;;;;;14.48;100.00;101647.47;105974;1258;61232;-85
2023/09/29 04:13:06;;;;;;;;;;;;;;;14.46;100.00;101647.47;106119;1257;61250;-86
2023/09/29 04:15:34;;;;;;;;;;;;;;;14.54;100.00;101648.80;108156;1260;73382;-84
2023/09/29 04:18:01;;;;;;;;;;;;;;;14.52;100.00;101646.59;106025;1257;67849;-84
2023/09/29 04:20:28;;;;;;;;;;;;;;;14.51;100.00;101650.14;105958;1259;263996;-83
2023/09/29 04:22:55;;;;;;;;;;;;;;;14.57;100.00;101648.04;106002;1260;61282;-84
2023/09/29 04:25:21;;;;;;;;;;;;;;;14.66;100.00;101647.58;106227;1259;61157;-85
2023/09/29 04:27:49;;;;;;;;;;;;;;;14.69;100.00;101646.85;106033;1257;72889;-85
2023/09/29 04:30:15;;;;;;;;;;;;;;;14.75;100.00;101650.70;106061;1259;68402;-83
2023/09/29 04:32:42;;;;;;;;;;;;;;;14.83;100.00;101649.96;106045;1257;71359;-85
2023/09/29 04:35:10;;;;;;;;;;;;;;;14.91;100.00;101649.39;106113;1257;61398;-85
2023/09/29 04:37:37;;;;;;;;;;;;;;;15.05;100.00;101648.37;106155;1259;61288;-84
2023/09/29 04:40:04;;;;;;;;;;;;;;;15.18;100.00;101649.09;106065;1259;74349;-83
2023/09/29 04:42:31;;;;;;;;;;;;;;;15.29;100.00;101645.68;106046;1257;68661;-84
2023/09/29 04:44:58;;;;;;;;;;;;;;;15.38;100.00;101645.16;106104;1258;71191;-82
2023/09/29 04:47:26;;;;;;;;;;;;;;;15.48;100.00;101642.46;105909;1258;61812;-85
2023/09/29 04:49:53;;;;;;;;;;;;;;;15.59;100.00;101643.27;106184;1260;61103;-84
2023/09/29 04:52:20;;;;;;;;;;;;;;;15.70;100.00;101641.81;106525;1262;76551;-85
2023/09/29 04:54:46;;;;;;;;;;;;;;;15.81;100.00;101646.04;106362;1262;67471;-85
2023/09/29 04:57:13;;;;;;;;;;;;;;;15.96;100.00;101650.14;106070;1257;72459;-85
2023/09/29 04:59:40;;;;;;;;;;;;;;;16.11;100.00;101648.14;105973;1258;61324;-85
2023/09/29 05:02:07;;;;;;;;;;;;;;;16.28;100.00;101646.35;105979;1257;61155;-85
2023/09/29 05:04:34;;;;;;;;;;;;;;;16.45;100.00;101642.62;107021;1257;73855;-84
2023/09/29 06:08:09;;;;;;;;;;;;;;;22.91;100.00;101634.23;106251;1258;73210;-85
2023/09/29 06:10:37;;;;;;;;;;;;;;;23.25;100.00;101636.19;106216;1259;66714;-85
2023/09/29 06:13:05;;;;;;;;;;;;;;;23.56;99.95;101630.14;106245;1262;72667;-85
2023/09/29 06:15:32;;;;;;;;;;;;;;;23.82;98.60;101635.46;106135;1258;61302;-85
2023/09/29 06:18:00;;;;;;;;;;;;;;;24.08;96.89;101628.54;106078;1259;61320;-84
2023/09/29 06:20:28;;;;;;;;;;;;;;;24.42;92.16;101628.16;106167;1259;73394;-85
2023/09/29 06:22:54;;;;;;;;;;;;;;;24.64;87.80;101631.19;107056;1262;67471;-85
2023/09/29 06:25:21;;;;;;;;;;;;;;;24.92;81.90;101631.08;106142;1261;71714;-85
2023/09/29 06:27:48;;;;;;;;;;;;;;;25.19;77.68;101632.31;106139;1260;61250;-85
2023/09/29 06:30:15;;;;;;;;;;;;;;;25.40;74.90;101632.27;106241;1259;61257;-85
2023/09/29 06:32:42;;;;;;;;;;;;;;;25.63;71.44;101635.77;106233;1260;74627;-84
2023/09/29 06:35:10;;;;;;;;;;;;;;;25.87;68.33;101636.02;106093;1257;61270;-85
2023/09/29 06:37:37;;;;;;;;;;;;;;;26.09;64.60;101635.23;106213;1258;62438;-85
2023/09/29 06:40:04;;;;;;;;;;;;;;;26.29;61.85;101633.92;107220;1257;61122;-85
2023/09/29 06:42:31;;;;;;;;;;;;;;;26.42;58.91;101629.78;106032;1262;61254;-85
2023/09/29 06:44:58;;;;;;;;;;;;;;;26.50;57.32;101630.58;106220;1258;64728;-85
2023/09/29 06:47:25;;;;;;;;;;;;;;;26.64;55.89;101634.08;106087;1259;61218;-85
2023/09/29 06:49:52;;;;;;;;;;;;;;;26.73;54.24;101629.73;106151;1262;63805;-86
2023/09/29 06:52:19;;;;;;;;;;;;;;;26.92;53.96;101631.74;106029;1258;61255;-86
2023/09/29 06:54:46;;;;;;;;;;;;;;;27.09;52.28;101636.00;106574;1260;61306;-84
2023/09/29 06:57:13;;;;;;;;;;;;;;;27.18;50.96;101633.20;106169;1262;65876;-84
2023/09/29 06:59:40;;;;;;;;;;;;;;;27.32;51.19;101631.77;106101;1262;61388;-85
2023/09/29 07:02:07;;;;;;;;;;;;;;;27.48;50.74;101636.13;106268;1259;64071;-85
2023/09/29 07:04:34;;;;;;;;;;;;;;;27.62;49.63;101637.48;106165;1261;61167;-86
2023/09/29 07:07:02;;;;;;;;;;;;;;;27.70;49.16;101637.19;106151;1259;61176;-84
2023/09/29 07:09:28;;;;;;;;;;;;;;;27.83;48.19;101638.84;106953;1262;65968;-85
2023/09/29 07:11:55;;;;;;;;;;;;;;;27.95;47.82;101634.35;106363;1258;61261;-85
2023/09/29 07:14:22;;;;;;;;;;;;;;;28.07;46.97;101636.52;106109;1259;63984;-85
2023/09/29 07:16:52;;;;;;;;;;;;;;;28.20;46.53;101637.50;106139;1258;60027;-85
2023/09/29 07:19:19;;;;;;;;;;;;;;;28.29;45.87;101635.77;106101;1257;60917;-85
2023/09/29 07:21:46;;;;;;;;;;;;;;;28.37;45.18;101637.52;106190;1259;64555;-85
2023/09/29 07:24:13;;;;;;;;;;;;;;;28.50;45.02;101638.73;106155;1259;61227;-85
2023/09/29 07:26:40;;;;;;;;;;;;;;;28.61;44.70;101633.89;106248;1259;62857;-86
2023/09/29 07:29:07;;;;;;;;;;;;;;;28.74;44.23;101634.42;106221;1257;61391;-86
2023/09/29 07:31:35;;;;;;;;;;;;;;;28.97;44.02;101633.04;106349;1262;61201;-84
2023/09/29 07:34:02;;;;;;;;;;;;;;;29.17;43.50;101633.79;106290;1257;65895;-85
2023/09/29 07:36:31;;;;;;;;;;;;;;;29.38;43.20;101635.06;106065;1262;61359;-84
2023/09/29 07:38:58;;;;;;;;;;;;;;;29.59;42.39;101634.16;106230;1259;64199;-85
2023/09/29 07:41:25;;;;;;;;;;;;;;;29.75;41.90;101635.36;106096;1259;61337;-85
2023/09/29 07:43:52;;;;;;;;;;;;;;;29.91;41.63;101631.85;106282;1262;61244;-85
2023/09/29 07:46:19;;;;;;;;;;;;;;;29.97;40.77;101633.21;106861;1258;65948;-85
2023/09/29 07:48:47;;;;;;;;;;;;;;;30.07;40.76;101632.04;106327;1258;61154;-84
2023/09/29 07:51:15;;;;;;;;;;;;;;;30.18;40.66;101633.13;106276;1260;62846;-83
2023/09/29 07:53:43;;;;;;;;;;;;;;;30.27;39.89;101631.64;106285;1260;61114;-84
2023/09/29 07:56:10;;;;;;;;;;;;;;;30.22;39.61;101636.32;106222;1261;61314;-84
2023/09/29 07:58:37;;;;;;;;;;;;;;;30.15;39.10;101638.73;106216;1262;64770;-85
2023/09/29 08:01:04;;;;;;;;;;;;;;;30.16;38.85;101638.67;106154;1259;61248;-85
2023/09/29 08:03:31;;;;;;;;;;;;;;;30.12;38.31;101636.84;106284;1262;64116;-85
2023/09/29 08:05:58;;;;;;;;;;;;;;;30.04;37.59;101631.52;106088;1262;61159;-85
2023/09/29 08:08:25;;;;;;;;;;;;;;;30.08;37.65;101630.02;106079;1260;61146;-86
2023/09/29 08:10:52;;;;;;;;;;;;;;;30.17;37.46;101633.75;106522;1262;65816;-84
2023/09/29 08:13:19;;;;;;;;;;;;;;;30.37;36.62;101632.55;106213;1258;61315;-85
2023/09/29 08:15:46;;;;;;;;;;;;;;;30.33;35.75;101630.02;106458;1259;62622;-85
2023/09/29 08:18:13;;;;;;;;;;;;;;;30.29;35.03;101628.05;106233;1259;61349;-85
2023/09/29 08:20:41;;;;;;;;;;;;;;;30.27;35.02;101628.59;106143;1259;61388;-85
2023/09/29 08:23:08;;;;;;;;;;;;;;;30.30;35.39;101627.41;106291;1260;65872;-85
2023/09/29 08:25:35;;;;;;;;;;;;;;;30.41;35.59;101627.77;106257;1260;61199;-85
2023/09/29 08:28:02;;;;;;;;;;;;;;;30.53;35.13;101629.16;106339;1259;63805;-85
2023/09/29 08:30:29;;;;;;;;;;;;;;;30.55;35.26;101629.35;106088;1261;61349;-85
2023/09/29 08:32:57;;;;;;;;;;;;;;;30.56;35.61;101627.75;106280;1259;61143;-86
2023/09/29 08:35:41;;;;;;;;;;;;;;;30.66;35.05;101625.89;106099;1259;65857;-85
2023/09/29 08:38:09;;;;;;;;;;;;;;;30.63;34.93;101625.55;106126;1262;61153;-86
2023/09/29 08:40:39;;;;;;;;;;;;;;;30.70;34.84;101626.25;106109;1260;62824;-85
2023/09/29 08:43:06;;;;;;;;;;;;;;;30.69;34.96;101625.44;106150;1257;61103;-85
2023/09/29 08:45:33;;;;;;;;;;;;;;;30.63;35.74;101624.33;106326;1259;61270;-84
2023/09/29 08:48:02;;;;;;;;;;;;;;;30.70;35.87;101624.39;106209;1259;66016;-86
2023/09/29 08:50:30;;;;;;;;;;;;;;;30.72;35.83;101624.98;107077;1257;61015;-85
2023/09/29 08:52:57;;;;;;;;;;;;;;;30.80;35.47;101620.55;107237;1263;62715;-86
2023/09/29 08:55:24;;;;;;;;;;;;;;;30.85;35.32;101622.70;106232;1262;61351;-86
2023/09/29 08:57:52;;;;;;;;;;;;;;;30.99;35.41;101617.82;106169;1259;61235;-86
2023/09/29 09:00:21;;;;;;;;;;;;;;;31.14;35.46;101621.55;106191;1257;65898;-85
2023/09/29 09:02:51;;;;;;;;;;;;;;;31.24;34.89;101619.27;106124;1259;60990;-86
2023/09/29 09:05:20;;;;;;;;;;;;;;;31.35;34.92;101617.23;106176;1262;64867;-86
2023/09/29 09:07:47;;;;;;;;;;;;;;;31.44;34.53;101620.63;106337;1262;61259;-83
2023/09/29 09:10:14;;;;;;;;;;;;;;;31.51;34.33;101616.64;106122;1262;61153;-84
2023/09/29 09:12:44;;;;;;;;;;;;;;;31.60;33.87;101618.46;106151;1259;66379;-84
2023/09/29 09:15:12;;;;;;;;;;;;;;;31.60;33.56;101620.55;106189;1260;61359;-87
2023/09/29 09:17:39;;;;;;;;;;;;;;;31.63;33.84;101618.23;106273;1262;64811;-85
2023/09/29 09:20:06;;;;;;;;;;;;;;;31.60;33.82;101613.13;106142;1259;61881;-86
2023/09/29 09:22:38;;;;;;;;;;;;;;;31.63;34.22;101611.21;106264;1259;61238;-85
2023/09/29 09:25:14;;;;;;;;;;;;;;;31.77;34.13;101608.03;106291;1258;66054;-86
2023/09/29 09:27:43;;;;;;;;;;;;;;;31.89;33.68;101605.73;106188;1259;61229;-86
2023/09/29 09:30:20;;;;;;;;;;;;;;;32.00;33.74;101605.63;106403;1259;64093;-87
2023/09/29 09:32:47;;;;;;;;;;;;;;;32.11;33.62;101599.60;106062;1260;61347;-87
2023/09/29 09:35:25;;;;;;;;;;;;;;;32.18;33.16;101597.05;106286;1259;61114;-87
2023/09/29 09:37:52;;;;;;;;;;;;;;;32.28;32.88;101591.56;106186;1262;76112;-87
2023/09/29 09:40:19;;;;;;;;;;;;;;;32.40;32.82;101588.91;106121;1261;61233;-85
2023/09/29 09:42:49;;;;;;;;;;;;;;;32.47;32.35;101586.98;106501;1258;64131;-86
2023/09/29 09:45:16;;;;;;;;;;;;;;;32.60;32.06;101586.45;106134;1260;61581;-85
2023/09/29 09:47:44;;;;;;;;;;;;;;;32.65;31.27;101586.85;106196;1259;61178;-85
2023/09/29 09:50:11;;;;;;;;;;;;;;;32.72;31.43;101581.02;106313;1260;67215;-88
2023/09/29 09:52:39;;;;;;;;;;;;;;;32.81;31.42;101574.80;106129;1260;61289;-86
2023/09/29 09:55:10;;;;;;;;;;;;;;;32.91;31.02;101570.25;106487;1262;64080;-87
2023/09/29 09:57:38;;;;;;;;;;;;;;;32.99;29.87;101567.89;106321;1258;61890;-86
2023/09/29 10:00:07;;;;;;;;;;;;;;;33.01;29.59;101567.98;106480;1260;61237;-86
2023/09/29 10:02:39;;;;;;;;;;;;;;;33.03;29.13;101568.86;106680;1262;65942;-86
2023/09/29 10:05:22;;;;;;;;;;;;;;;33.03;29.20;101563.05;106187;1262;61126;-84
2023/09/29 10:07:50;;;;;;;;;;;;;;;33.12;29.38;101560.20;106194;1259;65133;-87
2023/09/29 10:10:24;;;;;;;;;;;;;;;33.20;29.31;101559.30;106239;1259;61126;-81
2023/09/29 10:12:55;;;;;;;;;;;;;;;33.22;29.60;101557.02;106442;1258;61958;-87
2023/09/29 10:15:22;;;;;;;;;;;;;;;33.17;28.62;101553.41;106025;1262;67062;-88
2023/09/29 10:17:49;;;;;;;;;;;;;;;33.17;28.79;101555.58;106204;1258;61375;-88
2023/09/29 10:20:20;;;;;;;;;;;;;;;33.24;29.16;101556.61;106224;1259;65143;-88
2023/09/29 10:22:54;;;;;;;;;;;;;;;33.30;29.18;101554.08;106274;1259;61105;-88
2023/09/29 10:25:21;;;;;;;;;;;;;;;33.45;28.49;101546.17;106421;1260;61262;-85
2023/09/29 10:27:58;;;;;;;;;;;;;;;33.50;28.03;101547.85;106557;1259;65927;-87
2023/09/29 10:30:25;;;;;;;;;;;;;;;33.52;27.42;101544.77;106392;1262;61177;-87
2023/09/29 10:33:01;;;;;;;;;;;;;;;33.47;27.19;101547.05;106332;1262;63865;-86
2023/09/29 10:35:29;;;;;;;;;;;;;;;33.50;27.15;101543.98;106232;1262;61160;-88
2023/09/29 10:37:56;;;;;;;;;;;;;;;33.51;27.37;101537.25;106293;1259;61146;-85
2023/09/29 10:40:25;;;;;;;;;;;;;;;33.51;26.90;101535.88;106191;1262;66173;-85
2023/09/29 10:42:56;;;;;;;;;;;;;;;33.50;26.81;101530.86;106191;1262;62844;-86
2023/09/29 10:45:24;;;;;;;;;;;;;;;33.54;26.72;101526.72;106296;1262;64660;-85
2023/09/29 10:47:53;;;;;;;;;;;;;;;33.52;25.76;101521.20;106111;1260;61449;-88
2023/09/29 10:50:20;;;;;;;;;;;;;;;33.52;25.77;101516.27;106180;1262;61705;-85
2023/09/29 10:52:47;;;;;;;;;;;;;;;33.54;26.09;101513.35;106265;1262;65866;-86
2023/09/29 10:55:14;;;;;;;;;;;;;;;33.58;26.23;101509.30;106397;1259;61308;-85
2023/09/29 10:57:42;;;;;;;;;;;;;;;33.71;25.96;101507.13;106508;1260;63877;-85
2023/09/29 11:00:09;;;;;;;;;;;;;;;33.76;25.44;101507.81;106169;1260;61167;-85
2023/09/29 11:02:37;;;;;;;;;;;;;;;33.84;26.07;101504.45;106150;1262;61132;-85
2023/09/29 11:05:05;;;;;;;;;;;;;;;33.95;25.47;101500.26;106127;1265;67099;-87
2023/09/29 11:07:44;;;;;;;;;;;;;;;33.99;24.33;101497.95;106089;1262;61353;-87
2023/09/29 11:10:11;;;;;;;;;;;;;;;34.02;24.51;101493.73;106074;1260;64292;-87
2023/09/29 11:12:40;;;;;;;;;;;;;;;34.04;23.79;101492.41;106157;1263;61364;-85
2023/09/29 11:15:08;;;;;;;;;;;;;;;34.10;23.33;101493.45;106235;1263;61703;-85
2023/09/29 11:17:44;;;;;;;;;;;;;;;34.07;23.20;101489.73;106077;1261;65968;-87
2023/09/29 11:20:16;;;;;;;;;;;;;;;33.97;22.86;101485.17;106155;1259;61276;-87
2023/09/29 11:22:45;;;;;;;;;;;;;;;33.94;22.48;101485.44;106375;1262;63257;-84
2023/09/29 11:25:16;;;;;;;;;;;;;;;33.91;22.90;101486.27;106234;1260;61343;-88
2023/09/29 11:30:08;;;;;;;;;;;;;;;33.84;22.82;101482.50;103624;1289;598703;-86
2023/09/29 11:32:37;;;;;;;;;;;;;;;33.78;23.20;101484.58;105633;1270;59378;-84
2023/09/29 11:35:13;;;;;;;;;;;;;;;33.79;23.20;101481.90;105575;1272;59303;-85
2023/09/29 11:37:42;;;;;;;;;;;;;;;33.78;23.63;101478.34;105633;1269;63287;-84
2023/09/29 11:40:13;;;;;;;;;;;;;;;33.71;23.59;101477.41;105561;1268;61722;-83
2023/09/29 11:42:44;;;;;;;;;;;;;;;33.63;23.57;101477.05;105071;1270;290414;-84
2023/09/29 11:45:12;;;;;;;;;;;;;;;33.59;23.66;101475.63;106099;1266;58907;-85
2023/09/29 11:47:40;;;;;;;;;;;;;;;33.59;23.74;101473.77;106420;1266;60400;-85
2023/09/29 11:50:08;;;;;;;;;;;;;;;33.55;23.17;101470.45;105868;1266;63313;-85
2023/09/29 11:52:39;;;;;;;;;;;;;;;33.53;23.17;101466.40;106541;1268;59343;-84
2023/09/29 11:55:08;;;;;;;;;;;;;;;33.48;22.79;101461.33;105912;1266;65942;-86
2023/09/29 11:57:37;;;;;;;;;;;;;;;33.50;22.64;101462.13;105600;1265;59781;-83
2023/09/29 12:00:08;;;;;;;;;;;;;;;33.56;23.09;101459.95;105642;1266;59538;-84
2023/09/29 12:02:36;;;;;;;;;;;;;;;33.59;23.26;101458.48;105682;1266;64137;-84
2023/09/29 12:05:04;;;;;;;;;;;;;;;33.62;23.18;101457.55;105575;1266;60664;-84
2023/09/29 12:07:32;;;;;;;;;;;;;;;33.59;22.70;101451.83;105716;1267;66351;-83
2023/09/29 12:09:59;;;;;;;;;;;;;;;33.55;22.85;101447.30;105699;1266;60297;-84
2023/09/29 12:12:27;;;;;;;;;;;;;;;33.60;23.26;101443.00;105660;1271;59614;-88
2023/09/29 12:14:55;;;;;;;;;;;;;;;33.64;23.38;101440.70;106405;1258;66224;-84
2023/09/29 12:17:23;;;;;;;;;;;;;;;33.63;23.19;101439.23;106497;1254;60031;-86
2023/09/29 12:19:51;;;;;;;;;;;;;;;33.65;22.77;101437.05;106376;1254;63822;-85
2023/09/29 12:22:18;;;;;;;;;;;;;;;33.63;22.57;101433.90;106476;1256;59685;-83
2023/09/29 12:24:46;;;;;;;;;;;;;;;33.73;22.93;101431.91;107181;1257;59414;-86
2023/09/29 12:27:14;;;;;;;;;;;;;;;33.76;23.18;101428.40;106710;1254;66172;-86
2023/09/29 12:29:42;;;;;;;;;;;;;;;33.76;23.36;101423.61;107648;1259;60669;-83
2023/09/29 12:32:09;;;;;;;;;;;;;;;33.78;23.03;101421.33;107324;1255;64728;-85
2023/09/29 12:34:37;;;;;;;;;;;;;;;33.84;22.79;101423.71;108169;1254;59551;-85
2023/09/29 12:37:07;;;;;;;;;;;;;;;33.83;22.20;101423.72;107396;1254;59336;-84
2023/09/29 12:39:39;;;;;;;;;;;;;;;33.83;21.74;101421.06;107444;1257;65558;-85
2023/09/29 12:42:08;;;;;;;;;;;;;;;33.88;21.69;101418.42;105999;1262;62276;-86
2023/09/29 12:44:36;;;;;;;;;;;;;;;34.01;21.31;101410.77;106260;1257;63694;-86
2023/09/29 12:47:03;;;;;;;;;;;;;;;34.06;21.59;101408.96;106237;1259;59727;-83
2023/09/29 12:49:31;;;;;;;;;;;;;;;34.13;22.19;101411.02;106292;1258;59705;-86
2023/09/29 12:51:59;;;;;;;;;;;;;;;34.08;22.23;101409.60;106317;1254;64148;-83
2023/09/29 12:54:28;;;;;;;;;;;;;;;33.93;22.33;101410.60;106361;1254;61735;-84
2023/09/29 12:56:57;;;;;;;;;;;;;;;33.86;21.87;101409.93;106176;1259;63905;-84
2023/09/29 12:59:32;;;;;;;;;;;;;;;33.73;21.27;101409.46;105968;1260;59654;-84
2023/09/29 13:02:00;;;;;;;;;;;;;;;33.46;21.39;101403.88;106111;1254;59724;-85
2023/09/29 13:04:29;;;;;;;;;;;;;;;33.41;21.81;101401.33;106460;1255;66247;-87
2023/09/29 13:07:00;;;;;;;;;;;;;;;33.36;22.18;101399.00;106316;1255;59534;-84
2023/09/29 13:09:28;;;;;;;;;;;;;;;33.32;22.21;101398.70;106189;1256;62528;-85
2023/09/29 13:11:56;;;;;;;;;;;;;;;33.33;22.62;101396.03;106257;1256;59727;-83
2023/09/29 13:14:24;;;;;;;;;;;;;;;33.28;22.82;101398.40;106335;1254;59740;-84
2023/09/29 13:16:52;;;;;;;;;;;;;;;33.22;23.09;101396.66;106087;1259;66107;-84
2023/09/29 13:19:20;;;;;;;;;;;;;;;33.24;23.09;101391.88;106335;1257;61624;-84
2023/09/29 13:21:51;;;;;;;;;;;;;;;33.30;23.07;101390.61;106330;1254;65961;-85
2023/09/29 13:24:19;;;;;;;;;;;;;;;33.33;22.71;101383.80;107421;1254;59613;-83
2023/09/29 13:26:47;;;;;;;;;;;;;;;33.36;22.49;101383.47;106315;1257;59797;-84
2023/09/29 13:29:15;;;;;;;;;;;;;;;33.34;22.59;101382.17;106499;1254;65532;-84
2023/09/29 13:31:43;;;;;;;;;;;;;;;33.41;22.51;101379.14;106296;1254;59776;-84